Hovedside
METAR-TAF:

METAR-TAF

Lufthavner :

Majuro, Marshalløyene

breddegrad: 07-04N, lengdegrad: 171-17E, høyde over havet: 2 m

Gjeldene værobservasjon

Denne rapporten ble laget for 17 timer og 17 minutter siden, klokken 23:52 UTC
Vind 9 kt fra Øst-nordøst
Temperatur 31°C
Luftfuktighet 71%
Trykk 1008 hPa
Sikt: 24.1 km
Få skyer i en høyde av 1500 ft
Spredte skyer i en høyde av 5000 ft
Brutte skyer i en høyde av 30000 ft

METAR: PKMJ 122352Z 06009KT 15SM FEW015 SCT050 BKN300 31/25 A2977 RMK LAST

Tid: 05:09 (17:09 UTC)

Varsel

Denne rapporten ble laget for 5 timer og 35 minutter siden, klokken 11:34 UTC
Varsel gyldig fra 13. klokken 12 UTC til 14. klokken 12 UTC
Vind 7 kt fra Øst
Sikt: 10 km
Spredte skyer i en høyde av 1600 ft
Brutte skyer i en høyde av 5000 ft

TAF: PKMJ 131134Z 1312/1412 08007KT P6SM SCT016 BKN050

Værobservasjoner og værvarsel for over 4000 flyplasser (METAR- og TAF-rapporter).

Tilgjengelige stasjoner er representert av de røde og gule prikkene på kartet.

Hold musepekeren over prikken for å se navnet på stasjonen.

Klikk så for å se værobservasjoner og -varsler.

For å forandre kartet kan du klikke på den grønne knappen med svart kryss for å zoome inn, på den grønne knappen med strek for å zoome ut, eller på de grønne pilene for å se tilstøtende kart.


METAR-TAF: